Aviation Digital Data Service (ADDS)

Output produced by METARs form (0111 UTC 25 March 2019)
found at http://www.aviationweather.gov/metar/data/
 
LFBA 250100Z AUTO 29006KT CAVOK 08/04 Q1025
TAF LFBA 241700Z 2418/2503 32008KT CAVOK